»·PEaware :: N1976Z KSNA-KCRQ

N1976Z :: KSNA-KCRQ

FLIGHT INFORMATION

Flight Status: Arrived
Operator: Privately registered:
United States
More flights under this callsign
Pilot: Jay Z. (18662)
Aircraft: CESSNA 172 SKYHAWK
(C172)
More flights by this aircraft type
Origin: KSNA John Wayne-Orange Co
United States
Destination: KCRQ McClellan-Palomar
United States
More flights between these airports :: More routes between these airports
Route: +V23 OCN
File this flight plan on PilotEdge
Remarks: I-2 rating
Altitude:
(Current/Filed)
5,000ft
Speed:
(Current/Filed)
115kts
Departed: 15-Apr-18 08:44 AM
Arrived: 15-Apr-18 09:26 AM
Distance/Time
Traveled:
44nm/0:42
Distance/Time
To Go:
Arrived

Flight Plot

Page will automatically refresh every two minutes.


Map Options




Map Legend


Flown Route
Filed Route
Departure Airport
Arrival Airport
Navaid (VOR, NDB)
Fix

Horizontal Profiles

Position Reports

Time Latitude Longitude Heading Altitude Ground
Speed
15-Apr-18 08:34 33.676260 -117.870862 206 60ft 0kts
15-Apr-18 08:35 33.676260 -117.870861 206 60ft 0kts
15-Apr-18 08:36 33.676260 -117.870861 205 60ft 0kts
15-Apr-18 08:37 33.676260 -117.870861 205 60ft 0kts
15-Apr-18 08:38 33.676260 -117.870861 205 60ft 0kts
15-Apr-18 08:39 33.676073 -117.870326 88 60ft 13kts
15-Apr-18 08:40 33.681188 -117.867004 49 60ft 17kts
15-Apr-18 08:41 33.681245 -117.866433 114 60ft 0kts
15-Apr-18 08:42 33.681193 -117.866319 119 60ft 7kts
15-Apr-18 08:43 33.666352 -117.875076 209 611ft 86kts
15-Apr-18 08:44 33.641904 -117.881307 185 1557ft 101kts
15-Apr-18 08:45 33.613750 -117.885083 185 2342ft 106kts
15-Apr-18 08:46 33.584423 -117.888923 185 3138ft 107kts
15-Apr-18 08:47 33.554963 -117.892513 185 3936ft 106kts
15-Apr-18 08:48 33.525653 -117.895680 185 4734ft 106kts
15-Apr-18 08:49 33.496537 -117.898410 186 5074ft 111kts
15-Apr-18 08:50 33.467146 -117.901147 186 5072ft 99kts
15-Apr-18 08:51 33.440051 -117.902935 167 5072ft 100kts
15-Apr-18 08:52 33.423426 -117.877488 115 5074ft 101kts
15-Apr-18 08:53 33.407927 -117.842294 115 5017ft 132kts
15-Apr-18 08:54 33.392457 -117.801134 108 5003ft 136kts
15-Apr-18 08:55 33.378584 -117.758884 108 5005ft 136kts
15-Apr-18 08:56 33.364269 -117.717244 110 5006ft 135kts
15-Apr-18 08:57 33.348027 -117.676429 114 5007ft 136kts
15-Apr-18 08:58 33.329991 -117.636630 114 5008ft 136kts
15-Apr-18 08:59 33.311872 -117.596882 114 5009ft 135kts
15-Apr-18 09:00 33.295328 -117.556550 110 5009ft 135kts
15-Apr-18 09:01 33.280815 -117.514878 108 5012ft 135kts
15-Apr-18 09:02 33.263811 -117.474759 117 5018ft 136kts
15-Apr-18 09:03 33.247644 -117.434186 116 5017ft 135kts
15-Apr-18 09:04 33.228566 -117.395500 117 5016ft 135kts
15-Apr-18 09:05 33.209337 -117.356825 117 5015ft 135kts
15-Apr-18 09:06 33.196824 -117.317448 72 5013ft 128kts
15-Apr-18 09:07 33.206173 -117.276531 71 5013ft 127kts
15-Apr-18 09:08 33.215593 -117.235772 71 5012ft 127kts
15-Apr-18 09:09 33.225011 -117.195116 70 5011ft 126kts
15-Apr-18 09:10 33.234391 -117.154824 70 5010ft 125kts
15-Apr-18 09:11 33.245154 -117.114814 71 5000ft 129kts
15-Apr-18 09:12 33.247851 -117.073648 100 5005ft 127kts
15-Apr-18 09:13 33.242802 -117.031795 100 5012ft 127kts
15-Apr-18 09:14 33.230260 -116.995913 168 5007ft 124kts
15-Apr-18 09:15 33.202398 -117.019744 221 4861ft 125kts
15-Apr-18 09:16 33.177816 -117.048291 221 4358ft 123kts
15-Apr-18 09:17 33.159463 -117.082515 257 3825ft 129kts
15-Apr-18 09:18 33.153727 -117.123864 254 3499ft 116kts
15-Apr-18 09:19 33.147203 -117.160016 259 3257ft 103kts
15-Apr-18 09:20 33.142829 -117.191782 256 2309ft 76kts
15-Apr-18 09:21 33.139478 -117.213121 257 1774ft 62kts
15-Apr-18 09:22 33.135957 -117.232843 257 1186ft 60kts
15-Apr-18 09:23 33.133301 -117.249597 258 795ft 61kts
15-Apr-18 09:24 33.129362 -117.273297 257 341ft 59kts
15-Apr-18 09:25 33.127505 -117.280036 230 309ft 0kts
15-Apr-18 09:26 33.127505 -117.280036 230 309ft 0kts
15-Apr-18 09:27 33.127123 -117.279742 78 309ft 0kts
15-Apr-18 09:28 33.127123 -117.279742 78 309ft 0kts
15-Apr-18 09:29 33.127123 -117.279742 78 309ft 0kts
15-Apr-18 09:30 33.127123 -117.279742 78 309ft 0kts
15-Apr-18 09:31 33.127123 -117.279742 78 309ft 0kts
15-Apr-18 09:32 33.127123 -117.279742 78 309ft 0kts
15-Apr-18 09:33 33.127123 -117.279742 78 309ft 0kts

Navigation Log

Ident Type
1. KSNA Airport
2. OCN Navaid
3. KCRQ Airport